ADDS TAF Board (Experimental) INFO Settings
IDs: Format: Expanded Condensed

KATL - Atlanta/Hartsfield-J, GA, US

Issued at 1005 UTC 30 Aug 2016
Updated at 1049 UTC 30 Aug 2016
Time0952Z 30/11Z 30/12Z 30/13Z 30/14Z 30/15Z 30/16Z 30/17Z 30/18Z 30/19Z 30/20Z 30/21Z 30/22Z 30/23Z
Type OBS PRVL PRVL PRVL PRVL PRVL PRVL PRVL PRVL PRVL PRVL PRVL PRVL PRVL
VIS 10 >6 >6 >6 >6 >6 >6 >6 >6 >6 >6 >6 >6 >6
CIG -- -- -- -- -- -- -- -- -- -- -- -- -- --
Cover CLR FEW FEW FEW FEW FEW FEW SCT SCT SCT SCT SCT SCT SCT
FltCat VFR VFR VFR VFR VFR VFR VFR VFR VFR VFR VFR VFR VFR VFR
WX -- -- -- -- -- -- -- -- -- -- -- -- -- --
WDir 50 60 60 60 80 80 80 70 70 70 70 70 70 70
WSpd 7 6 6 6 8 8 8 12 12 12 12 12 12 12
WGst -- -- -- -- -- -- -- 18 18 18 18 18 18 18
R08/26
XWnd 4 3 3 3 1 1 1 4 4 4 4 4 4 4
XGst -- -- -- -- -- -- -- 6 6 6 6 6 6 6
HWnd 5 5 5 5 8 8 8 11 11 11 11 11 11 11
HGst -- -- -- -- -- -- -- 17 17 17 17 17 17 17
R09/27
XWnd 4 3 3 3 1 1 1 4 4 4 4 4 4 4
XGst -- -- -- -- -- -- -- 6 6 6 6 6 6 6
HWnd 5 5 5 5 8 8 8 11 11 11 11 11 11 11
HGst -- -- -- -- -- -- -- 17 17 17 17 17 17 17
R10/28
XWnd 4 3 3 3 1 1 1 4 4 4 4 4 4 4
XGst -- -- -- -- -- -- -- 6 6 6 6 6 6 6
HWnd 5 5 5 5 8 8 8 11 11 11 11 11 11 11
HGst -- -- -- -- -- -- -- 17 17 17 17 17 17 17

Raw TAF
KATL 301005Z 3010/3112 06006KT P6SM FEW050
  FM301400 08008KT P6SM FEW030
  FM301700 07012G18KT P6SM SCT045
  FM310000 09008KT P6SM SCT120


Raw METAR
KATL 300952Z 05007KT 10SM CLR 23/20 A3008 RMK AO2 SLP175 T02330200
KATL 300852Z 08006KT 10SM CLR 23/20 A3008 RMK AO2 SLP175 T02280200 58004
KATL 300752Z 04007KT 10SM CLR 24/20 A3009 RMK AO2 SLP177 T02440200

METAR Board
Radar Display
Forecast Discussion

TAF Board Legend

Potential Impact
Threat None Slight Moderate High
Visibility (sm) ≥5.1 5.1>X≥3 3>X≥1 <1
Ceiling (100 ft) ≥30.1 30.1>X≥10 10>X≥5 <5
Wind Speed (kt) <10 10≤X<20 20≤X<30 ≥30
Wind Gust (kt) <15 15≤X<25 25≤X<35 ≥35
Weather No Wx Reported VCTS,-TS,-FZRA,SN TS,FZRA +TS,+FZRA,+SN